KTOL/TOL METAR and TAF weather

Enter ICAO airport designator
Station Type Date Time Source
KTOL METAR 2021/09/28 16:52 UTC NOAA

KTOL 281652Z 03004KT 10SM CLR 22/09 A3001 RMK AO2 SLP160 T02220094


Station Type Date Time Source
KTOL Decoded METAR 2021/09/28 16:52 UTC NOAA

TOLEDO EXPRESS AIRPORT, OH, United States (KTOL) 41-35N 083-48W 210M
Sep 28, 2021 - 12:52 PM EDT / 2021.09.28 1652 UTC
Wind: from the NNE (030 degrees) at 5 MPH (4 KT):0
Visibility: 10 mile(s):0
Sky conditions: clear
Temperature: 72.0 F (22.2 C)
Dew Point: 48.9 F (9.4 C)
Relative Humidity: 44%
Pressure (altimeter): 30.01 in. Hg (1016 hPa)
ob: KTOL 281652Z 03004KT 10SM CLR 22/09 A3001 RMK AO2 SLP160 T02220094
cycle: 17

Station Type Date Time Source
KTOL TAF 2021/09/28 18:22 UTC NOAA

TAF KTOL 281720Z 2818/2918 06003KT P6SM SKC

Example: see airport list